sensor_id;sensor_type;location;lat;lon;timestamp;P1;durP1;ratioP1;P2;durP2;ratioP2
75866;SDS011;64513;56.258;43.980;2023-02-28T00:01:34;12.50;;;4.50;;
75866;SDS011;64513;56.258;43.980;2023-02-28T00:03:58;10.85;;;4.45;;
75866;SDS011;64513;56.258;43.980;2023-02-28T00:06:23;10.68;;;4.00;;
75866;SDS011;64513;56.258;43.980;2023-02-28T00:08:48;9.53;;;3.72;;
75866;SDS011;64513;56.258;43.980;2023-02-28T00:11:13;8.25;;;3.30;;
75866;SDS011;64513;56.258;43.980;2023-02-28T00:18:50;9.18;;;3.20;;
75866;SDS011;64513;56.258;43.980;2023-02-28T00:21:15;7.65;;;3.20;;
75866;SDS011;64513;56.258;43.980;2023-02-28T00:23:40;9.88;;;3.40;;
75866;SDS011;64513;56.258;43.980;2023-02-28T00:26:04;8.40;;;3.30;;
75866;SDS011;64513;56.258;43.980;2023-02-28T00:28:28;8.03;;;3.12;;
75866;SDS011;64513;56.258;43.980;2023-02-28T00:30:53;8.78;;;3.20;;
75866;SDS011;64513;56.258;43.980;2023-02-28T00:33:18;10.13;;;2.92;;
75866;SDS011;64513;56.258;43.980;2023-02-28T00:35:42;8.48;;;3.00;;
75866;SDS011;64513;56.258;43.980;2023-02-28T00:38:26;8.30;;;3.10;;
75866;SDS011;64513;56.258;43.980;2023-02-28T00:40:50;8.95;;;3.10;;
75866;SDS011;64513;56.258;43.980;2023-02-28T00:43:14;8.13;;;3.12;;
75866;SDS011;64513;56.258;43.980;2023-02-28T00:45:38;6.87;;;2.67;;
75866;SDS011;64513;56.258;43.980;2023-02-28T00:48:02;9.33;;;3.40;;
75866;SDS011;64513;56.258;43.980;2023-02-28T00:50:27;8.20;;;3.20;;
75866;SDS011;64513;56.258;43.980;2023-02-28T00:52:51;8.50;;;3.50;;
75866;SDS011;64513;56.258;43.980;2023-02-28T00:55:15;8.88;;;3.52;;
75866;SDS011;64513;56.258;43.980;2023-02-28T00:57:39;8.55;;;3.67;;
75866;SDS011;64513;56.258;43.980;2023-02-28T01:00:04;11.85;;;3.87;;
75866;SDS011;64513;56.258;43.980;2023-02-28T01:02:29;12.85;;;4.20;;
75866;SDS011;64513;56.258;43.980;2023-02-28T01:04:54;10.95;;;3.85;;
75866;SDS011;64513;56.258;43.980;2023-02-28T01:07:18;9.70;;;3.85;;
75866;SDS011;64513;56.258;43.980;2023-02-28T01:09:42;11.57;;;4.40;;
75866;SDS011;64513;56.258;43.980;2023-02-28T01:12:06;11.33;;;4.40;;
75866;SDS011;64513;56.258;43.980;2023-02-28T01:14:31;10.70;;;4.05;;
75866;SDS011;64513;56.258;43.980;2023-02-28T01:16:55;10.25;;;3.95;;
75866;SDS011;64513;56.258;43.980;2023-02-28T01:19:19;9.40;;;3.95;;
75866;SDS011;64513;56.258;43.980;2023-02-28T01:21:44;12.33;;;3.77;;
75866;SDS011;64513;56.258;43.980;2023-02-28T01:24:08;11.78;;;3.92;;
75866;SDS011;64513;56.258;43.980;2023-02-28T01:26:32;10.05;;;4.00;;
75866;SDS011;64513;56.258;43.980;2023-02-28T01:28:56;10.75;;;4.17;;
75866;SDS011;64513;56.258;43.980;2023-02-28T01:31:21;8.80;;;3.15;;
75866;SDS011;64513;56.258;43.980;2023-02-28T01:33:46;9.08;;;3.50;;
75866;SDS011;64513;56.258;43.980;2023-02-28T01:36:12;12.43;;;3.83;;
75866;SDS011;64513;56.258;43.980;2023-02-28T01:38:57;10.40;;;3.40;;
75866;SDS011;64513;56.258;43.980;2023-02-28T01:41:22;11.43;;;3.62;;
75866;SDS011;64513;56.258;43.980;2023-02-28T01:46:34;9.28;;;3.70;;
75866;SDS011;64513;56.258;43.980;2023-02-28T01:54:31;9.65;;;3.30;;
75866;SDS011;64513;56.258;43.980;2023-02-28T01:57:32;9.50;;;3.60;;
75866;SDS011;64513;56.258;43.980;2023-02-28T01:59:44;9.13;;;2.95;;
75866;SDS011;64513;56.258;43.980;2023-02-28T02:02:10;9.55;;;3.12;;
75866;SDS011;64513;56.258;43.980;2023-02-28T02:04:37;8.90;;;2.60;;
75866;SDS011;64513;56.258;43.980;2023-02-28T02:07:02;8.88;;;3.20;;
75866;SDS011;64513;56.258;43.980;2023-02-28T02:09:27;6.33;;;2.65;;
75866;SDS011;64513;56.258;43.980;2023-02-28T02:11:51;9.33;;;2.87;;
75866;SDS011;64513;56.258;43.980;2023-02-28T02:26:01;6.72;;;2.70;;
75866;SDS011;64513;56.258;43.980;2023-02-28T02:34:18;8.88;;;2.60;;
75866;SDS011;64513;56.258;43.980;2023-02-28T02:40:07;6.78;;;2.67;;
75866;SDS011;64513;56.258;43.980;2023-02-28T02:42:51;6.75;;;2.52;;
75866;SDS011;64513;56.258;43.980;2023-02-28T02:48:21;7.55;;;2.65;;
75866;SDS011;64513;56.258;43.980;2023-02-28T02:51:07;6.92;;;2.40;;
75866;SDS011;64513;56.258;43.980;2023-02-28T02:53:54;8.83;;;2.72;;
75866;SDS011;64513;56.258;43.980;2023-02-28T02:56:19;6.22;;;2.45;;
75866;SDS011;64513;56.258;43.980;2023-02-28T02:58:46;6.25;;;2.35;;
75866;SDS011;64513;56.258;43.980;2023-02-28T03:03:42;6.67;;;2.80;;
75866;SDS011;64513;56.258;43.980;2023-02-28T03:06:08;6.83;;;2.65;;
75866;SDS011;64513;56.258;43.980;2023-02-28T03:11:16;8.95;;;3.10;;
75866;SDS011;64513;56.258;43.980;2023-02-28T03:28:47;5.95;;;2.50;;
75866;SDS011;64513;56.258;43.980;2023-02-28T03:37:03;8.10;;;2.55;;
75866;SDS011;64513;56.258;43.980;2023-02-28T03:42:35;9.35;;;3.08;;
75866;SDS011;64513;56.258;43.980;2023-02-28T03:47:30;6.67;;;2.80;;
75866;SDS011;64513;56.258;43.980;2023-02-28T03:55:47;7.87;;;2.40;;
75866;SDS011;64513;56.258;43.980;2023-02-28T04:04:20;6.75;;;2.40;;
75866;SDS011;64513;56.258;43.980;2023-02-28T04:06:45;7.30;;;2.80;;
75866;SDS011;64513;56.258;43.980;2023-02-28T04:09:12;8.65;;;2.75;;
75866;SDS011;64513;56.258;43.980;2023-02-28T04:14:21;7.45;;;2.50;;
75866;SDS011;64513;56.258;43.980;2023-02-28T04:16:46;7.83;;;2.83;;
75866;SDS011;64513;56.258;43.980;2023-02-28T04:19:11;6.70;;;2.80;;
75866;SDS011;64513;56.258;43.980;2023-02-28T04:21:37;8.88;;;2.58;;
75866;SDS011;64513;56.258;43.980;2023-02-28T04:24:03;7.72;;;2.83;;
75866;SDS011;64513;56.258;43.980;2023-02-28T04:28:55;7.05;;;2.67;;
75866;SDS011;64513;56.258;43.980;2023-02-28T04:31:20;6.45;;;2.30;;
75866;SDS011;64513;56.258;43.980;2023-02-28T04:33:44;5.28;;;2.22;;
75866;SDS011;64513;56.258;43.980;2023-02-28T04:36:08;6.95;;;2.42;;
75866;SDS011;64513;56.258;43.980;2023-02-28T04:41:19;7.72;;;2.37;;
75866;SDS011;64513;56.258;43.980;2023-02-28T04:43:43;5.55;;;2.20;;
75866;SDS011;64513;56.258;43.980;2023-02-28T04:46:08;7.33;;;2.58;;
75866;SDS011;64513;56.258;43.980;2023-02-28T04:48:33;6.03;;;2.10;;
75866;SDS011;64513;56.258;43.980;2023-02-28T04:51:00;6.42;;;1.95;;
75866;SDS011;64513;56.258;43.980;2023-02-28T04:53:44;6.47;;;2.37;;
75866;SDS011;64513;56.258;43.980;2023-02-28T04:56:10;6.30;;;2.15;;
75866;SDS011;64513;56.258;43.980;2023-02-28T04:58:35;5.85;;;1.87;;
75866;SDS011;64513;56.258;43.980;2023-02-28T05:04:04;5.12;;;1.85;;
75866;SDS011;64513;56.258;43.980;2023-02-28T05:06:29;4.20;;;1.60;;
75866;SDS011;64513;56.258;43.980;2023-02-28T05:08:55;4.60;;;1.90;;
75866;SDS011;64513;56.258;43.980;2023-02-28T05:11:20;5.50;;;1.98;;
75866;SDS011;64513;56.258;43.980;2023-02-28T05:14:05;5.65;;;1.80;;
75866;SDS011;64513;56.258;43.980;2023-02-28T05:16:31;5.37;;;1.75;;
75866;SDS011;64513;56.258;43.980;2023-02-28T05:18:56;5.50;;;1.70;;
75866;SDS011;64513;56.258;43.980;2023-02-28T05:26:50;4.33;;;1.60;;
75866;SDS011;64513;56.258;43.980;2023-02-28T05:29:15;5.75;;;2.08;;
75866;SDS011;64513;56.258;43.980;2023-02-28T05:31:39;4.90;;;2.10;;
75866;SDS011;64513;56.258;43.980;2023-02-28T05:34:04;4.30;;;1.80;;
75866;SDS011;64513;56.258;43.980;2023-02-28T05:36:28;4.85;;;1.80;;
75866;SDS011;64513;56.258;43.980;2023-02-28T05:38:52;4.45;;;1.98;;
75866;SDS011;64513;56.258;43.980;2023-02-28T05:41:17;5.35;;;1.98;;
75866;SDS011;64513;56.258;43.980;2023-02-28T05:43:42;5.08;;;2.02;;
75866;SDS011;64513;56.258;43.980;2023-02-28T05:46:07;5.85;;;2.25;;
75866;SDS011;64513;56.258;43.980;2023-02-28T05:48:34;5.37;;;2.00;;
75866;SDS011;64513;56.258;43.980;2023-02-28T05:50:59;5.30;;;2.12;;
75866;SDS011;64513;56.258;43.980;2023-02-28T05:53:23;5.35;;;2.12;;
75866;SDS011;64513;56.258;43.980;2023-02-28T05:55:48;6.25;;;2.27;;
75866;SDS011;64513;56.258;43.980;2023-02-28T05:58:13;6.70;;;2.10;;
75866;SDS011;64513;56.258;43.980;2023-02-28T06:00:37;5.97;;;2.52;;
75866;SDS011;64513;56.258;43.980;2023-02-28T06:03:01;4.47;;;2.12;;
75866;SDS011;64513;56.258;43.980;2023-02-28T06:05:25;5.33;;;2.42;;
75866;SDS011;64513;56.258;43.980;2023-02-28T06:07:50;6.15;;;2.58;;
75866;SDS011;64513;56.258;43.980;2023-02-28T06:10:14;5.50;;;2.25;;
75866;SDS011;64513;56.258;43.980;2023-02-28T06:12:38;5.65;;;2.60;;
75866;SDS011;64513;56.258;43.980;2023-02-28T06:15:03;6.20;;;2.62;;
75866;SDS011;64513;56.258;43.980;2023-02-28T06:17:28;7.05;;;2.92;;
75866;SDS011;64513;56.258;43.980;2023-02-28T06:19:52;6.12;;;2.70;;
75866;SDS011;64513;56.258;43.980;2023-02-28T06:22:16;7.40;;;2.90;;
75866;SDS011;64513;56.258;43.980;2023-02-28T06:24:40;7.40;;;2.75;;
75866;SDS011;64513;56.258;43.980;2023-02-28T06:27:04;7.78;;;2.70;;
75866;SDS011;64513;56.258;43.980;2023-02-28T06:29:28;5.97;;;2.37;;
75866;SDS011;64513;56.258;43.980;2023-02-28T06:31:52;7.60;;;2.80;;
75866;SDS011;64513;56.258;43.980;2023-02-28T06:34:17;8.05;;;2.95;;
75866;SDS011;64513;56.258;43.980;2023-02-28T06:36:41;7.25;;;2.83;;
75866;SDS011;64513;56.258;43.980;2023-02-28T06:39:06;7.60;;;3.17;;
75866;SDS011;64513;56.258;43.980;2023-02-28T06:41:30;6.60;;;2.80;;
75866;SDS011;64513;56.258;43.980;2023-02-28T06:43:56;6.53;;;2.75;;
75866;SDS011;64513;56.258;43.980;2023-02-28T06:46:21;7.80;;;2.85;;
75866;SDS011;64513;56.258;43.980;2023-02-28T06:48:46;7.60;;;2.87;;
75866;SDS011;64513;56.258;43.980;2023-02-28T06:51:11;7.33;;;2.75;;
75866;SDS011;64513;56.258;43.980;2023-02-28T06:53:56;8.10;;;3.17;;
75866;SDS011;64513;56.258;43.980;2023-02-28T06:56:20;7.78;;;2.90;;
75866;SDS011;64513;56.258;43.980;2023-02-28T07:01:29;7.60;;;3.22;;
75866;SDS011;64513;56.258;43.980;2023-02-28T07:03:54;7.40;;;2.58;;
75866;SDS011;64513;56.258;43.980;2023-02-28T07:08:45;6.58;;;2.70;;
75866;SDS011;64513;56.258;43.980;2023-02-28T07:11:09;8.15;;;3.00;;
75866;SDS011;64513;56.258;43.980;2023-02-28T07:13:33;7.42;;;2.90;;
75866;SDS011;64513;56.258;43.980;2023-02-28T07:15:59;7.15;;;3.15;;
75866;SDS011;64513;56.258;43.980;2023-02-28T07:18:24;8.10;;;2.92;;
75866;SDS011;64513;56.258;43.980;2023-02-28T07:20:49;6.72;;;2.90;;
75866;SDS011;64513;56.258;43.980;2023-02-28T07:23:13;5.93;;;2.70;;
75866;SDS011;64513;56.258;43.980;2023-02-28T07:25:37;5.30;;;2.70;;
75866;SDS011;64513;56.258;43.980;2023-02-28T07:28:02;8.28;;;3.05;;
75866;SDS011;64513;56.258;43.980;2023-02-28T07:30:26;7.72;;;3.40;;
75866;SDS011;64513;56.258;43.980;2023-02-28T07:32:50;6.55;;;2.77;;
75866;SDS011;64513;56.258;43.980;2023-02-28T07:35:16;7.00;;;2.90;;
75866;SDS011;64513;56.258;43.980;2023-02-28T07:37:40;7.35;;;3.00;;
75866;SDS011;64513;56.258;43.980;2023-02-28T07:40:06;6.72;;;3.08;;
75866;SDS011;64513;56.258;43.980;2023-02-28T07:42:32;8.93;;;2.95;;
75866;SDS011;64513;56.258;43.980;2023-02-28T07:44:57;6.33;;;2.72;;
75866;SDS011;64513;56.258;43.980;2023-02-28T07:47:21;7.47;;;3.10;;
75866;SDS011;64513;56.258;43.980;2023-02-28T07:49:46;6.35;;;2.75;;
75866;SDS011;64513;56.258;43.980;2023-02-28T07:52:10;6.65;;;2.98;;
75866;SDS011;64513;56.258;43.980;2023-02-28T07:54:34;8.25;;;3.12;;
75866;SDS011;64513;56.258;43.980;2023-02-28T07:56:58;7.35;;;3.12;;
75866;SDS011;64513;56.258;43.980;2023-02-28T07:59:23;6.13;;;2.80;;
75866;SDS011;64513;56.258;43.980;2023-02-28T08:01:47;6.65;;;2.92;;
75866;SDS011;64513;56.258;43.980;2023-02-28T08:04:11;7.55;;;2.83;;
75866;SDS011;64513;56.258;43.980;2023-02-28T08:06:35;7.03;;;3.20;;
75866;SDS011;64513;56.258;43.980;2023-02-28T08:09:00;7.65;;;3.10;;
75866;SDS011;64513;56.258;43.980;2023-02-28T08:11:24;7.20;;;3.03;;
75866;SDS011;64513;56.258;43.980;2023-02-28T08:13:48;6.95;;;3.15;;
75866;SDS011;64513;56.258;43.980;2023-02-28T08:16:12;6.75;;;2.77;;
75866;SDS011;64513;56.258;43.980;2023-02-28T08:18:39;5.60;;;2.83;;
75866;SDS011;64513;56.258;43.980;2023-02-28T08:23:48;7.83;;;2.70;;
75866;SDS011;64513;56.258;43.980;2023-02-28T08:26:13;7.17;;;2.62;;
75866;SDS011;64513;56.258;43.980;2023-02-28T08:28:37;6.60;;;2.72;;
75866;SDS011;64513;56.258;43.980;2023-02-28T08:31:01;7.60;;;3.12;;
75866;SDS011;64513;56.258;43.980;2023-02-28T08:33:47;11.60;;;3.17;;
75866;SDS011;64513;56.258;43.980;2023-02-28T08:36:13;7.47;;;3.37;;
75866;SDS011;64513;56.258;43.980;2023-02-28T08:38:37;7.53;;;3.10;;
75866;SDS011;64513;56.258;43.980;2023-02-28T08:41:03;7.12;;;3.47;;
75866;SDS011;64513;56.258;43.980;2023-02-28T08:43:29;7.58;;;3.05;;
75866;SDS011;64513;56.258;43.980;2023-02-28T08:45:54;6.45;;;3.10;;
75866;SDS011;64513;56.258;43.980;2023-02-28T08:48:19;7.20;;;3.10;;
75866;SDS011;64513;56.258;43.980;2023-02-28T08:50:43;7.75;;;3.40;;
75866;SDS011;64513;56.258;43.980;2023-02-28T08:53:09;9.75;;;3.27;;
75866;SDS011;64513;56.258;43.980;2023-02-28T08:55:33;7.80;;;3.10;;
75866;SDS011;64513;56.258;43.980;2023-02-28T08:57:57;8.08;;;2.65;;
75866;SDS011;64513;56.258;43.980;2023-02-28T09:00:22;7.73;;;3.20;;
75866;SDS011;64513;56.258;43.980;2023-02-28T09:02:46;9.35;;;3.02;;
75866;SDS011;64513;56.258;43.980;2023-02-28T09:05:10;7.65;;;2.92;;
75866;SDS011;64513;56.258;43.980;2023-02-28T09:07:34;6.83;;;3.10;;
75866;SDS011;64513;56.258;43.980;2023-02-28T09:09:58;7.37;;;3.30;;
75866;SDS011;64513;56.258;43.980;2023-02-28T09:12:23;7.65;;;3.20;;
75866;SDS011;64513;56.258;43.980;2023-02-28T09:14:49;6.17;;;2.70;;
75866;SDS011;64513;56.258;43.980;2023-02-28T09:17:13;6.85;;;2.50;;
75866;SDS011;64513;56.258;43.980;2023-02-28T09:19:37;6.53;;;2.60;;
75866;SDS011;64513;56.258;43.980;2023-02-28T09:22:01;6.33;;;2.72;;
75866;SDS011;64513;56.258;43.980;2023-02-28T09:24:25;8.85;;;2.80;;
75866;SDS011;64513;56.258;43.980;2023-02-28T09:26:51;8.55;;;2.90;;
75866;SDS011;64513;56.258;43.980;2023-02-28T09:29:15;6.55;;;2.90;;
75866;SDS011;64513;56.258;43.980;2023-02-28T09:31:39;7.33;;;2.80;;
75866;SDS011;64513;56.258;43.980;2023-02-28T09:34:04;6.78;;;2.60;;
75866;SDS011;64513;56.258;43.980;2023-02-28T09:36:28;6.30;;;2.65;;
75866;SDS011;64513;56.258;43.980;2023-02-28T09:38:53;5.97;;;2.90;;
75866;SDS011;64513;56.258;43.980;2023-02-28T09:46:54;7.08;;;2.98;;
75866;SDS011;64513;56.258;43.980;2023-02-28T09:49:23;7.45;;;3.20;;
75866;SDS011;64513;56.258;43.980;2023-02-28T09:54:33;7.72;;;3.05;;
75866;SDS011;64513;56.258;43.980;2023-02-28T09:57:01;6.92;;;2.80;;
75866;SDS011;64513;56.258;43.980;2023-02-28T10:11:44;6.75;;;3.02;;
75866;SDS011;64513;56.258;43.980;2023-02-28T10:16:56;8.60;;;3.50;;
75866;SDS011;64513;56.258;43.980;2023-02-28T10:30:45;8.25;;;3.40;;
75866;SDS011;64513;56.258;43.980;2023-02-28T10:36:14;8.23;;;3.58;;
75866;SDS011;64513;56.258;43.980;2023-02-28T10:38:40;9.98;;;3.50;;
75866;SDS011;64513;56.258;43.980;2023-02-28T10:43:32;8.80;;;3.90;;
75866;SDS011;64513;56.258;43.980;2023-02-28T10:54:20;8.40;;;3.60;;
75866;SDS011;64513;56.258;43.980;2023-02-28T10:56:54;9.45;;;3.45;;
75866;SDS011;64513;56.258;43.980;2023-02-28T10:59:32;10.30;;;3.87;;
75866;SDS011;64513;56.258;43.980;2023-02-28T11:01:56;10.75;;;3.92;;
75866;SDS011;64513;56.258;43.980;2023-02-28T11:07:06;8.50;;;3.17;;
75866;SDS011;64513;56.258;43.980;2023-02-28T11:15:05;10.15;;;3.58;;
75866;SDS011;64513;56.258;43.980;2023-02-28T11:17:31;10.65;;;3.77;;
75866;SDS011;64513;56.258;43.980;2023-02-28T11:22:28;14.85;;;4.40;;
75866;SDS011;64513;56.258;43.980;2023-02-28T11:24:57;12.70;;;4.47;;
75866;SDS011;64513;56.258;43.980;2023-02-28T11:30:29;11.18;;;4.80;;
75866;SDS011;64513;56.258;43.980;2023-02-28T11:32:54;9.40;;;4.58;;
75866;SDS011;64513;56.258;43.980;2023-02-28T11:38:07;13.90;;;5.67;;
75866;SDS011;64513;56.258;43.980;2023-02-28T11:47:15;12.80;;;6.00;;
75866;SDS011;64513;56.258;43.980;2023-02-28T11:49:29;15.95;;;6.00;;
75866;SDS011;64513;56.258;43.980;2023-02-28T12:00:52;10.75;;;4.83;;
75866;SDS011;64513;56.258;43.980;2023-02-28T12:03:37;13.45;;;4.90;;
75866;SDS011;64513;56.258;43.980;2023-02-28T12:27:11;11.30;;;4.03;;
75866;SDS011;64513;56.258;43.980;2023-02-28T12:41:22;7.85;;;3.05;;
75866;SDS011;64513;56.258;43.980;2023-02-28T12:46:34;7.00;;;2.90;;
75866;SDS011;64513;56.258;43.980;2023-02-28T13:04:42;4.83;;;1.80;;
75866;SDS011;64513;56.258;43.980;2023-02-28T13:10:10;7.12;;;2.45;;
75866;SDS011;64513;56.258;43.980;2023-02-28T13:12:37;8.63;;;2.62;;
75866;SDS011;64513;56.258;43.980;2023-02-28T13:17:33;7.72;;;2.62;;
75866;SDS011;64513;56.258;43.980;2023-02-28T13:19:58;7.05;;;2.70;;
75866;SDS011;64513;56.258;43.980;2023-02-28T13:31:19;7.30;;;3.27;;
75866;SDS011;64513;56.258;43.980;2023-02-28T13:36:31;7.55;;;2.87;;
75866;SDS011;64513;56.258;43.980;2023-02-28T13:50:57;5.42;;;2.02;;
75866;SDS011;64513;56.258;43.980;2023-02-28T14:13:03;5.00;;;1.85;;
75866;SDS011;64513;56.258;43.980;2023-02-28T14:16:22;5.50;;;2.00;;
75866;SDS011;64513;56.258;43.980;2023-02-28T14:29:41;6.10;;;2.05;;
75866;SDS011;64513;56.258;43.980;2023-02-28T14:57:55;11.55;;;4.30;;
75866;SDS011;64513;56.258;43.980;2023-02-28T15:06:15;11.90;;;5.20;;
75866;SDS011;64513;56.258;43.980;2023-02-28T15:08:41;11.78;;;4.80;;
75866;SDS011;64513;56.258;43.980;2023-02-28T15:16:59;13.48;;;6.00;;
75866;SDS011;64513;56.258;43.980;2023-02-28T15:19:27;14.30;;;5.80;;
75866;SDS011;64513;56.258;43.980;2023-02-28T15:22:13;13.70;;;5.60;;
75866;SDS011;64513;56.258;43.980;2023-02-28T15:35:43;11.65;;;4.70;;
75866;SDS011;64513;56.258;43.980;2023-02-28T15:40:55;10.60;;;4.65;;
75866;SDS011;64513;56.258;43.980;2023-02-28T15:59:35;10.40;;;3.70;;
75866;SDS011;64513;56.258;43.980;2023-02-28T16:07:33;10.85;;;3.70;;
75866;SDS011;64513;56.258;43.980;2023-02-28T16:09:58;9.58;;;3.50;;
75866;SDS011;64513;56.258;43.980;2023-02-28T16:14:52;12.47;;;3.90;;
75866;SDS011;64513;56.258;43.980;2023-02-28T16:19:48;11.28;;;3.70;;
75866;SDS011;64513;56.258;43.980;2023-02-28T16:22:13;12.03;;;4.05;;
75866;SDS011;64513;56.258;43.980;2023-02-28T16:24:39;8.40;;;4.00;;
75866;SDS011;64513;56.258;43.980;2023-02-28T16:27:04;13.08;;;4.42;;
75866;SDS011;64513;56.258;43.980;2023-02-28T16:29:30;11.20;;;4.70;;
75866;SDS011;64513;56.258;43.980;2023-02-28T16:31:56;10.72;;;4.50;;
75866;SDS011;64513;56.258;43.980;2023-02-28T16:34:21;12.55;;;5.08;;
75866;SDS011;64513;56.258;43.980;2023-02-28T16:36:49;15.80;;;5.50;;
75866;SDS011;64513;56.258;43.980;2023-02-28T16:39:14;15.13;;;5.40;;
75866;SDS011;64513;56.258;43.980;2023-02-28T16:47:10;14.40;;;6.30;;
75866;SDS011;64513;56.258;43.980;2023-02-28T16:49:36;12.50;;;6.10;;
75866;SDS011;64513;56.258;43.980;2023-02-28T16:52:02;15.05;;;6.33;;
75866;SDS011;64513;56.258;43.980;2023-02-28T16:54:27;18.70;;;6.78;;
75866;SDS011;64513;56.258;43.980;2023-02-28T16:56:52;13.43;;;6.45;;
75866;SDS011;64513;56.258;43.980;2023-02-28T16:59:49;15.28;;;6.92;;
75866;SDS011;64513;56.258;43.980;2023-02-28T17:02:07;17.60;;;6.40;;
75866;SDS011;64513;56.258;43.980;2023-02-28T17:04:32;15.53;;;5.83;;
75866;SDS011;64513;56.258;43.980;2023-02-28T17:06:57;13.18;;;5.17;;
75866;SDS011;64513;56.258;43.980;2023-02-28T17:09:22;14.65;;;5.15;;
75866;SDS011;64513;56.258;43.980;2023-02-28T17:11:47;12.25;;;5.22;;
75866;SDS011;64513;56.258;43.980;2023-02-28T17:14:12;12.40;;;5.05;;
75866;SDS011;64513;56.258;43.980;2023-02-28T17:16:38;13.08;;;5.37;;
75866;SDS011;64513;56.258;43.980;2023-02-28T17:19:04;11.03;;;4.50;;
75866;SDS011;64513;56.258;43.980;2023-02-28T17:21:31;12.05;;;5.22;;
75866;SDS011;64513;56.258;43.980;2023-02-28T17:23:57;11.05;;;5.08;;
75866;SDS011;64513;56.258;43.980;2023-02-28T17:26:22;13.70;;;4.40;;
75866;SDS011;64513;56.258;43.980;2023-02-28T17:28:48;11.90;;;4.10;;
75866;SDS011;64513;56.258;43.980;2023-02-28T17:31:15;9.90;;;4.25;;
75866;SDS011;64513;56.258;43.980;2023-02-28T17:33:41;10.28;;;4.30;;
75866;SDS011;64513;56.258;43.980;2023-02-28T17:36:06;10.10;;;3.77;;
75866;SDS011;64513;56.258;43.980;2023-02-28T17:38:34;9.10;;;3.50;;
75866;SDS011;64513;56.258;43.980;2023-02-28T17:40:58;10.03;;;4.45;;
75866;SDS011;64513;56.258;43.980;2023-02-28T17:48:53;10.05;;;4.37;;
75866;SDS011;64513;56.258;43.980;2023-02-28T17:51:19;10.60;;;4.00;;
75866;SDS011;64513;56.258;43.980;2023-02-28T17:53:45;12.07;;;3.90;;
75866;SDS011;64513;56.258;43.980;2023-02-28T17:58:55;10.05;;;3.95;;
75866;SDS011;64513;56.258;43.980;2023-02-28T18:01:20;9.98;;;4.20;;
75866;SDS011;64513;56.258;43.980;2023-02-28T18:03:46;7.40;;;3.30;;
75866;SDS011;64513;56.258;43.980;2023-02-28T18:11:44;8.88;;;3.10;;
75866;SDS011;64513;56.258;43.980;2023-02-28T18:14:29;8.35;;;3.33;;
75866;SDS011;64513;56.258;43.980;2023-02-28T18:16:55;10.25;;;3.70;;
75866;SDS011;64513;56.258;43.980;2023-02-28T18:19:19;10.55;;;4.10;;
75866;SDS011;64513;56.258;43.980;2023-02-28T18:21:44;9.35;;;3.70;;
75866;SDS011;64513;56.258;43.980;2023-02-28T18:24:09;7.72;;;2.95;;
75866;SDS011;64513;56.258;43.980;2023-02-28T18:26:35;9.55;;;3.92;;
75866;SDS011;64513;56.258;43.980;2023-02-28T18:28:59;8.90;;;3.50;;
75866;SDS011;64513;56.258;43.980;2023-02-28T18:31:44;11.38;;;3.22;;
75866;SDS011;64513;56.258;43.980;2023-02-28T18:34:09;9.25;;;3.45;;
75866;SDS011;64513;56.258;43.980;2023-02-28T18:36:34;9.30;;;3.70;;
75866;SDS011;64513;56.258;43.980;2023-02-28T18:38:59;6.92;;;3.20;;
75866;SDS011;64513;56.258;43.980;2023-02-28T18:41:24;7.60;;;3.30;;
75866;SDS011;64513;56.258;43.980;2023-02-28T18:43:49;8.33;;;3.55;;
75866;SDS011;64513;56.258;43.980;2023-02-28T18:46:14;7.33;;;2.98;;
75866;SDS011;64513;56.258;43.980;2023-02-28T18:48:40;8.43;;;3.00;;
75866;SDS011;64513;56.258;43.980;2023-02-28T18:53:33;6.95;;;2.80;;
75866;SDS011;64513;56.258;43.980;2023-02-28T18:55:59;8.28;;;3.35;;
75866;SDS011;64513;56.258;43.980;2023-02-28T18:58:25;7.58;;;2.67;;
75866;SDS011;64513;56.258;43.980;2023-02-28T19:03:54;6.95;;;2.70;;
75866;SDS011;64513;56.258;43.980;2023-02-28T19:06:20;6.70;;;2.60;;
75866;SDS011;64513;56.258;43.980;2023-02-28T19:08:46;7.00;;;2.35;;
75866;SDS011;64513;56.258;43.980;2023-02-28T19:11:13;5.62;;;2.37;;
75866;SDS011;64513;56.258;43.980;2023-02-28T19:13:38;6.85;;;2.33;;
75866;SDS011;64513;56.258;43.980;2023-02-28T19:16:04;7.15;;;2.47;;
75866;SDS011;64513;56.258;43.980;2023-02-28T19:18:30;5.40;;;2.10;;
75866;SDS011;64513;56.258;43.980;2023-02-28T19:20:54;5.37;;;2.20;;
75866;SDS011;64513;56.258;43.980;2023-02-28T19:23:18;5.45;;;2.30;;
75866;SDS011;64513;56.258;43.980;2023-02-28T19:25:42;6.42;;;2.40;;
75866;SDS011;64513;56.258;43.980;2023-02-28T19:28:07;4.65;;;1.98;;
75866;SDS011;64513;56.258;43.980;2023-02-28T19:30:33;5.90;;;2.00;;
75866;SDS011;64513;56.258;43.980;2023-02-28T19:32:57;6.30;;;1.80;;
75866;SDS011;64513;56.258;43.980;2023-02-28T19:35:22;7.65;;;1.85;;
75866;SDS011;64513;56.258;43.980;2023-02-28T19:37:46;6.50;;;1.90;;
75866;SDS011;64513;56.258;43.980;2023-02-28T19:40:12;5.87;;;1.57;;
75866;SDS011;64513;56.258;43.980;2023-02-28T19:42:36;5.60;;;2.00;;
75866;SDS011;64513;56.258;43.980;2023-02-28T19:45:01;4.87;;;1.80;;
75866;SDS011;64513;56.258;43.980;2023-02-28T19:47:28;5.58;;;2.00;;
75866;SDS011;64513;56.258;43.980;2023-02-28T19:49:52;5.70;;;2.05;;
75866;SDS011;64513;56.258;43.980;2023-02-28T19:52:16;6.42;;;1.90;;
75866;SDS011;64513;56.258;43.980;2023-02-28T19:54:41;6.00;;;2.15;;
75866;SDS011;64513;56.258;43.980;2023-02-28T19:57:05;5.42;;;1.90;;
75866;SDS011;64513;56.258;43.980;2023-02-28T19:59:29;6.80;;;2.02;;
75866;SDS011;64513;56.258;43.980;2023-02-28T20:01:53;9.03;;;2.40;;
75866;SDS011;64513;56.258;43.980;2023-02-28T20:04:18;6.62;;;2.02;;
75866;SDS011;64513;56.258;43.980;2023-02-28T20:06:42;5.60;;;2.00;;
75866;SDS011;64513;56.258;43.980;2023-02-28T20:09:06;6.00;;;2.10;;
75866;SDS011;64513;56.258;43.980;2023-02-28T20:11:30;5.75;;;1.85;;
75866;SDS011;64513;56.258;43.980;2023-02-28T20:13:55;6.33;;;1.85;;
75866;SDS011;64513;56.258;43.980;2023-02-28T20:16:20;6.12;;;1.85;;
75866;SDS011;64513;56.258;43.980;2023-02-28T20:21:31;7.60;;;1.98;;
75866;SDS011;64513;56.258;43.980;2023-02-28T20:23:55;4.75;;;1.70;;
75866;SDS011;64513;56.258;43.980;2023-02-28T20:26:19;8.45;;;2.00;;
75866;SDS011;64513;56.258;43.980;2023-02-28T20:28:43;6.65;;;1.80;;
75866;SDS011;64513;56.258;43.980;2023-02-28T20:59:49;4.70;;;1.55;;
75866;SDS011;64513;56.258;43.980;2023-02-28T21:13:24;4.92;;;1.15;;
75866;SDS011;64513;56.258;43.980;2023-02-28T21:26:59;6.58;;;1.17;;
75866;SDS011;64513;56.258;43.980;2023-02-28T21:29:23;5.15;;;0.98;;
75866;SDS011;64513;56.258;43.980;2023-02-28T21:34:34;5.28;;;1.30;;
75866;SDS011;64513;56.258;43.980;2023-02-28T21:36:58;5.40;;;0.90;;
75866;SDS011;64513;56.258;43.980;2023-02-28T21:39:23;4.22;;;1.00;;
75866;SDS011;64513;56.258;43.980;2023-02-28T21:41:49;6.62;;;1.05;;
75866;SDS011;64513;56.258;43.980;2023-02-28T21:44:14;4.37;;;1.12;;
75866;SDS011;64513;56.258;43.980;2023-02-28T21:46:38;3.67;;;0.88;;
75866;SDS011;64513;56.258;43.980;2023-02-28T21:49:02;6.00;;;1.10;;
75866;SDS011;64513;56.258;43.980;2023-02-28T21:51:27;3.60;;;1.00;;
75866;SDS011;64513;56.258;43.980;2023-02-28T21:53:52;5.87;;;1.30;;
75866;SDS011;64513;56.258;43.980;2023-02-28T21:58:45;4.03;;;1.00;;
75866;SDS011;64513;56.258;43.980;2023-02-28T22:01:11;5.20;;;1.10;;
75866;SDS011;64513;56.258;43.980;2023-02-28T22:03:56;5.55;;;1.27;;